Time;durP1;ratioP1;P1;durP2;ratioP2;P2;SDS_P1;SDS_P2;PMS_P1;PMS_P2;Temp;Humidity;BMP_temperature;BMP_pressure;BME280_temperature;BME280_humidity;BME280_pressure;Samples;Min_cycle;Max_cycle;Signal;HPM_P1;HPM_P2
2022/11/07 00:02:22;;;;;;;12.15;6.40;;;10.40;99.90;;;;;;5069538;28;20040;-75
2022/11/07 00:04:48;;;;;;;15.38;6.93;;;10.40;99.90;;;;;;5069374;28;20555;-74
2022/11/07 00:07:14;;;;;;;11.20;6.55;;;10.40;99.90;;;;;;5051385;28;20041;-76
2022/11/07 00:09:39;;;;;;;13.70;6.40;;;10.40;99.90;;;;;;5069583;28;20199;-76
2022/11/07 00:12:05;;;;;;;14.82;6.22;;;10.40;99.90;;;;;;5051362;28;20049;-77
2022/11/07 00:14:31;;;;;;;16.17;6.30;;;10.40;99.90;;;;;;5051180;28;20055;-77
2022/11/07 00:16:56;;;;;;;14.10;5.95;;;10.50;99.90;;;;;;5051297;28;20062;-79
2022/11/07 00:19:22;;;;;;;10.93;5.82;;;10.50;99.90;;;;;;5069369;28;20140;-78
2022/11/07 00:21:48;;;;;;;12.38;6.15;;;10.60;99.90;;;;;;5051428;28;20060;-77
2022/11/07 00:24:16;;;;;;;13.52;6.15;;;10.50;99.90;;;;;;5069200;28;20044;-77
2022/11/07 00:26:43;;;;;;;14.50;5.63;;;10.60;99.90;;;;;;5052976;28;20395;-75
2022/11/07 00:29:13;;;;;;;19.60;6.30;;;10.50;99.90;;;;;;5089577;28;20561;-75
2022/11/07 00:31:39;;;;;;;12.70;6.25;;;10.80;99.90;;;;;;5089158;28;20390;-77
2022/11/07 00:34:04;;;;;;;9.63;5.22;;;10.50;99.90;;;;;;5089331;28;20047;-77
2022/11/07 00:36:30;;;;;;;15.05;6.00;;;10.50;99.90;;;;;;5089092;28;20043;-76
2022/11/07 00:38:56;;;;;;;13.45;5.95;;;10.60;99.90;;;;;;5089271;28;20048;-78
2022/11/07 00:41:22;;;;;;;9.68;5.40;;;10.80;99.90;;;;;;5070811;28;20589;-77
2022/11/07 00:43:47;;;;;;;14.38;5.78;;;10.60;99.90;;;;;;5089050;28;20135;-75
2022/11/07 00:46:15;;;;;;;14.73;6.53;;;10.60;99.90;;;;;;5089115;28;20181;-77
2022/11/07 00:48:41;;;;;;;20.83;6.18;;;10.60;99.90;;;;;;5091749;28;20052;-79
2022/11/07 00:51:11;;;;;;;15.93;5.68;;;10.60;99.90;;;;;;5060260;28;20041;-81
2022/11/07 00:53:37;;;;;;;15.43;6.00;;;10.60;99.90;;;;;;5053000;28;20063;-77
2022/11/07 00:56:05;;;;;;;10.98;5.78;;;10.60;99.90;;;;;;5051523;28;20368;-77
2022/11/07 00:58:31;;;;;;;10.35;5.30;;;10.60;99.90;;;;;;5052819;28;20404;-77
2022/11/07 01:00:58;;;;;;;14.02;5.47;;;11.20;99.90;;;;;;5052632;28;20044;-78
2022/11/07 01:06:08;;;;;;;13.48;5.30;;;10.70;99.90;;;;;;5052598;28;20049;-76
2022/11/07 01:08:34;;;;;;;17.25;6.50;;;11.10;99.90;;;;;;5052533;28;20506;-76
2022/11/07 01:11:04;;;;;;;13.00;5.15;;;10.70;99.90;;;;;;5047699;28;20555;-77
2022/11/07 01:13:30;;;;;;;10.93;4.70;;;10.70;99.90;;;;;;5034455;28;20607;-77
2022/11/07 01:15:55;;;;;;;15.60;5.93;;;10.80;99.90;;;;;;5052556;28;20135;-80
2022/11/07 01:18:21;;;;;;;11.27;4.95;;;10.70;99.90;;;;;;5034244;28;20067;-76
2022/11/07 01:20:48;;;;;;;13.48;5.32;;;11.20;99.90;;;;;;5052551;28;20059;-76
2022/11/07 01:23:14;;;;;;;14.43;6.28;;;11.10;99.90;;;;;;5052321;28;20048;-78
2022/11/07 01:25:40;;;;;;;15.73;5.28;;;10.70;99.90;;;;;;5050972;28;20132;-76
2022/11/07 01:28:07;;;;;;;12.20;5.10;;;11.10;99.90;;;;;;5079292;28;20159;-77
2022/11/07 01:30:36;;;;;;;19.30;6.68;;;10.70;99.90;;;;;;5074157;28;20055;-77
2022/11/07 01:33:02;;;;;;;13.02;5.38;;;10.70;99.90;;;;;;5073833;28;20146;-76
2022/11/07 01:35:28;;;;;;;12.52;5.70;;;10.70;99.90;;;;;;5074007;28;20131;-76
2022/11/07 01:37:53;;;;;;;12.25;5.75;;;10.70;99.90;;;;;;5057613;28;20044;-77
2022/11/07 01:40:19;;;;;;;11.82;5.78;;;10.70;99.90;;;;;;5092714;28;20164;-79
2022/11/07 01:42:45;;;;;;;11.02;4.97;;;11.10;99.90;;;;;;5074407;28;20075;-76
2022/11/07 01:45:22;;;;;;;10.20;4.85;;;10.70;99.90;;;;;;5092121;28;20414;-78
2022/11/07 01:47:49;;;;;;;18.38;5.53;;;10.70;99.90;;;;;;5092095;28;20145;-77
2022/11/07 01:50:15;;;;;;;10.70;4.78;;;10.70;99.90;;;;;;5073661;28;20048;-79
2022/11/07 01:52:45;;;;;;;13.93;5.40;;;10.70;99.90;;;;;;5092179;28;20040;-79
2022/11/07 01:55:22;;;;;;;16.63;5.10;;;10.70;99.90;;;;;;5092539;28;20123;-76
2022/11/07 01:58:00;;;;;;;14.73;4.75;;;10.70;99.90;;;;;;5074369;28;20060;-80
2022/11/07 02:00:27;;;;;;;11.57;4.40;;;10.80;99.90;;;;;;5073874;28;20047;-77
2022/11/07 02:02:59;;;;;;;14.25;4.70;;;10.80;99.90;;;;;;5073922;28;20060;-77
2022/11/07 02:05:38;;;;;;;12.50;4.57;;;10.80;99.90;;;;;;5073747;28;20607;-77
2022/11/07 02:08:06;;;;;;;11.05;3.80;;;10.80;99.90;;;;;;5091877;28;20044;-79
2022/11/07 02:10:34;;;;;;;13.10;4.45;;;11.00;99.90;;;;;;5091892;28;20067;-76
2022/11/07 02:13:02;;;;;;;14.38;4.15;;;10.90;99.90;;;;;;5091656;28;20044;-77
2022/11/07 02:15:28;;;;;;;10.75;4.05;;;10.80;99.90;;;;;;5091761;28;20044;-76
2022/11/07 02:17:55;;;;;;;11.20;3.40;;;10.80;99.90;;;;;;5091463;28;20055;-77
2022/11/07 02:20:20;;;;;;;8.93;3.65;;;10.90;99.90;;;;;;5091031;28;20131;-78
2022/11/07 02:22:57;;;;;;;13.52;4.43;;;10.80;99.90;;;;;;5073212;28;20051;-78
2022/11/07 02:25:24;;;;;;;16.92;4.53;;;10.90;99.90;;;;;;5073327;28;20372;-77
2022/11/07 02:27:53;;;;;;;11.38;4.28;;;10.90;99.90;;;;;;5091661;28;20516;-77
2022/11/07 02:30:22;;;;;;;10.85;3.58;;;10.80;99.90;;;;;;5073495;28;20052;-76
2022/11/07 02:32:49;;;;;;;9.88;3.55;;;10.90;99.90;;;;;;5073280;28;20518;-77
2022/11/07 02:35:33;;;;;;;9.07;3.33;;;10.80;99.90;;;;;;5091291;28;20048;-76
2022/11/07 02:37:59;;;;;;;12.27;3.70;;;10.80;99.90;;;;;;5069294;28;20086;-76
2022/11/07 02:40:27;;;;;;;10.18;3.20;;;10.80;99.90;;;;;;5071327;28;20059;-76
2022/11/07 02:42:53;;;;;;;13.05;3.72;;;10.80;99.90;;;;;;5070922;28;20048;-76
2022/11/07 02:45:23;;;;;;;12.75;3.95;;;10.80;99.90;;;;;;5069460;28;20066;-76
2022/11/07 02:47:49;;;;;;;14.57;4.05;;;10.80;99.90;;;;;;5071069;28;20047;-79
2022/11/07 02:50:15;;;;;;;11.80;3.67;;;10.80;99.90;;;;;;5072018;28;20058;-79
2022/11/07 02:52:41;;;;;;;12.93;3.70;;;11.20;99.90;;;;;;5090736;28;20050;-77
2022/11/07 02:55:10;;;;;;;15.85;3.35;;;10.80;99.90;;;;;;5072490;28;20051;-76
2022/11/07 02:57:36;;;;;;;12.88;3.13;;;11.00;99.90;;;;;;5072525;28;20047;-76
2022/11/07 03:00:03;;;;;;;10.60;2.63;;;11.10;99.90;;;;;;5090661;28;20044;-80
2022/11/07 03:02:29;;;;;;;8.82;2.95;;;10.80;99.90;;;;;;5071683;28;20058;-76
2022/11/07 03:04:55;;;;;;;15.20;2.95;;;10.70;99.90;;;;;;5071981;28;20411;-78
2022/11/07 03:07:20;;;;;;;12.77;3.20;;;11.10;99.90;;;;;;5090952;28;20048;-76
2022/11/07 03:09:46;;;;;;;11.82;2.80;;;10.90;99.90;;;;;;5071988;28;20056;-76
2022/11/07 03:12:12;;;;;;;12.45;3.10;;;11.00;99.90;;;;;;5090123;28;20387;-78
2022/11/07 03:14:37;;;;;;;14.23;3.60;;;10.80;99.90;;;;;;5090396;28;20044;-79
2022/11/07 03:17:03;;;;;;;17.55;3.80;;;10.70;99.90;;;;;;5089985;28;20087;-77
2022/11/07 03:19:28;;;;;;;14.95;3.50;;;11.20;99.90;;;;;;5090359;28;20079;-76
2022/11/07 03:21:54;;;;;;;12.40;3.70;;;10.70;99.90;;;;;;5051136;28;20426;-77
2022/11/07 03:24:20;;;;;;;16.48;3.17;;;10.70;99.90;;;;;;5084106;28;20089;-76
2022/11/07 03:26:45;;;;;;;12.20;3.13;;;10.70;99.90;;;;;;5090109;28;20048;-77
2022/11/07 03:29:11;;;;;;;12.15;3.05;;;10.80;99.90;;;;;;5071853;28;20132;-79
2022/11/07 03:31:36;;;;;;;12.15;3.30;;;11.00;99.90;;;;;;5089613;28;20060;-80
2022/11/07 03:34:02;;;;;;;15.15;3.97;;;11.10;99.90;;;;;;5089805;28;20051;-77
2022/11/07 03:36:28;;;;;;;11.05;3.10;;;10.70;99.90;;;;;;5090006;28;20044;-77
2022/11/07 03:38:54;;;;;;;17.17;3.08;;;10.60;99.90;;;;;;5071961;28;20110;-79
2022/11/07 03:41:19;;;;;;;8.88;2.50;;;10.60;99.90;;;;;;5090041;28;20116;-79
2022/11/07 03:43:45;;;;;;;11.48;2.55;;;10.60;99.90;;;;;;5068006;28;20060;-79
2022/11/07 03:46:13;;;;;;;13.50;2.55;;;10.60;99.90;;;;;;5069544;28;20052;-80
2022/11/07 03:48:38;;;;;;;20.70;3.00;;;10.70;99.90;;;;;;5069676;28;20048;-77
2022/11/07 03:51:05;;;;;;;8.73;2.55;;;10.70;99.90;;;;;;5084702;28;20477;-79
2022/11/07 03:53:31;;;;;;;10.77;3.05;;;10.60;99.90;;;;;;5089880;28;20044;-76
2022/11/07 03:55:57;;;;;;;12.75;3.03;;;10.90;99.90;;;;;;5071498;28;20048;-77
2022/11/07 03:58:24;;;;;;;12.98;2.80;;;10.60;99.90;;;;;;5089460;28;20044;-75
2022/11/07 04:00:50;;;;;;;14.95;2.95;;;10.70;99.90;;;;;;5089935;28;20634;-76
2022/11/07 04:03:16;;;;;;;14.35;3.38;;;10.60;99.90;;;;;;5089509;28;20139;-76
2022/11/07 04:05:42;;;;;;;12.10;2.83;;;10.50;99.90;;;;;;5071254;28;20396;-76
2022/11/07 04:08:07;;;;;;;12.48;2.90;;;10.50;99.90;;;;;;5054576;28;20383;-76
2022/11/07 04:10:33;;;;;;;16.33;2.67;;;10.50;99.90;;;;;;5089689;28;20048;-77
2022/11/07 04:18:28;;;;;;;;;;;10.50;99.90;;;;;;5071352;28;20056;-78
2022/11/07 04:20:54;;;;;;;9.23;2.08;;;10.50;99.90;;;;;;5088986;28;20377;-78
2022/11/07 04:23:19;;;;;;;16.95;3.20;;;11.20;99.90;;;;;;5089027;28;20109;-77
2022/11/07 04:28:29;;;;;;;12.87;3.73;;;10.50;99.90;;;;;;5069687;28;20048;-77
2022/11/07 04:30:55;;;;;;;19.17;3.63;;;10.60;99.90;;;;;;5054069;28;20071;-76
2022/11/07 04:33:20;;;;;;;13.98;3.03;;;10.50;99.90;;;;;;5088882;28;20032;-77
2022/11/07 04:35:46;;;;;;;15.50;3.30;;;10.50;99.90;;;;;;5089091;28;20105;-77
2022/11/07 04:38:12;;;;;;;18.35;3.47;;;10.50;99.90;;;;;;5067056;28;20079;-77
2022/11/07 04:40:37;;;;;;;12.35;3.22;;;10.50;99.90;;;;;;5069035;28;20048;-80
2022/11/07 04:43:08;;;;;;;13.88;3.60;;;10.60;99.90;;;;;;5068790;28;20116;-78
2022/11/07 04:45:39;;;;;;;14.98;3.03;;;10.80;99.90;;;;;;5070093;28;20052;-76
2022/11/07 04:48:05;;;;;;;15.75;3.40;;;10.50;99.90;;;;;;5069864;28;20127;-78
2022/11/07 04:50:31;;;;;;;17.20;3.58;;;10.50;99.90;;;;;;5089160;28;20132;-79
2022/11/07 04:52:57;;;;;;;15.40;4.25;;;10.50;99.90;;;;;;5088641;28;20127;-80
2022/11/07 04:55:25;;;;;;;20.48;4.18;;;10.50;99.90;;;;;;5070905;28;20048;-79
2022/11/07 04:57:51;;;;;;;15.95;4.32;;;10.70;99.90;;;;;;5070889;28;20040;-77
2022/11/07 05:00:18;;;;;;;22.35;4.88;;;10.50;99.90;;;;;;5070559;28;20044;-78
2022/11/07 05:02:45;;;;;;;15.48;3.88;;;10.60;99.90;;;;;;5070886;28;20477;-80
2022/11/07 05:05:12;;;;;;;15.60;3.80;;;10.50;99.90;;;;;;5088906;28;20483;-76
2022/11/07 05:07:38;;;;;;;18.27;4.90;;;10.60;99.90;;;;;;5089100;28;20379;-80
2022/11/07 05:10:06;;;;;;;18.20;4.22;;;10.50;99.90;;;;;;5089143;28;20087;-76
2022/11/07 05:12:31;;;;;;;13.48;3.22;;;10.50;99.90;;;;;;5070452;28;20052;-80
2022/11/07 05:14:58;;;;;;;13.05;3.90;;;10.50;99.90;;;;;;5088720;28;20371;-82
2022/11/07 05:17:24;;;;;;;16.50;3.85;;;10.50;99.90;;;;;;5070609;28;20578;-78
2022/11/07 05:19:49;;;;;;;16.38;3.95;;;10.50;99.90;;;;;;5088773;28;20063;-82
2022/11/07 05:24:59;;;;;;;11.90;3.80;;;10.40;99.90;;;;;;5087845;28;20134;-81
2022/11/07 05:27:25;;;;;;;15.82;4.00;;;10.50;99.90;;;;;;5088428;28;20127;-76
2022/11/07 05:29:51;;;;;;;16.90;4.10;;;10.60;99.90;;;;;;5086926;28;20040;-77
2022/11/07 05:32:17;;;;;;;14.80;4.22;;;10.40;99.90;;;;;;5088724;28;20101;-80
2022/11/07 05:34:42;;;;;;;12.13;3.88;;;10.40;99.90;;;;;;5090854;28;20048;-78
2022/11/07 05:37:09;;;;;;;15.70;4.50;;;10.50;99.90;;;;;;5074256;28;20044;-80
2022/11/07 05:39:35;;;;;;;12.60;4.25;;;10.40;99.90;;;;;;5091498;28;20192;-80
2022/11/07 05:42:02;;;;;;;16.42;4.82;;;10.70;99.90;;;;;;5073717;28;20421;-76
2022/11/07 05:44:28;;;;;;;17.52;4.50;;;10.40;99.90;;;;;;5072141;28;20044;-79
2022/11/07 05:46:58;;;;;;;13.98;4.10;;;10.40;99.90;;;;;;5072038;28;20041;-78
2022/11/07 05:49:24;;;;;;;15.70;5.03;;;10.40;99.90;;;;;;5071976;28;20492;-77
2022/11/07 05:51:49;;;;;;;19.23;4.75;;;10.50;99.90;;;;;;5072023;28;20040;-77
2022/11/07 05:54:15;;;;;;;13.27;4.82;;;10.90;99.90;;;;;;5053776;28;20052;-76
2022/11/07 05:56:42;;;;;;;15.63;4.68;;;10.40;99.90;;;;;;5073177;28;20098;-78
2022/11/07 05:59:12;;;;;;;11.80;4.63;;;10.50;99.90;;;;;;5091496;28;20774;-76
2022/11/07 06:01:38;;;;;;;15.07;5.07;;;10.40;99.90;;;;;;5071249;28;20055;-80
2022/11/07 06:04:04;;;;;;;13.80;4.45;;;10.70;99.90;;;;;;5053372;28;20048;-77
2022/11/07 06:06:30;;;;;;;13.80;4.13;;;10.40;99.90;;;;;;5071568;28;20051;-76
2022/11/07 06:08:57;;;;;;;17.10;4.85;;;10.70;99.90;;;;;;5071543;28;20052;-77
2022/11/07 06:11:23;;;;;;;14.65;4.90;;;10.50;99.90;;;;;;5071523;28;20372;-76
2022/11/07 06:13:49;;;;;;;16.23;5.00;;;10.40;99.90;;;;;;5053585;28;20055;-78
2022/11/07 06:16:15;;;;;;;15.23;5.53;;;10.50;99.90;;;;;;5081799;28;20047;-77
2022/11/07 06:18:40;;;;;;;13.15;5.40;;;10.50;99.90;;;;;;5071026;28;20036;-75
2022/11/07 06:21:06;;;;;;;18.23;5.20;;;10.50;99.90;;;;;;5091143;28;20048;-77
2022/11/07 06:23:32;;;;;;;14.77;5.05;;;10.40;99.90;;;;;;5091004;28;20178;-77
2022/11/07 06:25:58;;;;;;;16.65;5.22;;;10.60;99.90;;;;;;5072914;28;20093;-76
2022/11/07 06:28:24;;;;;;;14.77;4.43;;;10.40;99.90;;;;;;5072362;28;20402;-76
2022/11/07 06:30:50;;;;;;;12.90;4.20;;;10.50;99.90;;;;;;5073218;28;20056;-75
2022/11/07 06:33:17;;;;;;;13.35;4.57;;;10.50;99.90;;;;;;5072643;28;20067;-78
2022/11/07 06:35:44;;;;;;;18.77;4.57;;;10.50;99.90;;;;;;5055558;28;20067;-74
2022/11/07 06:38:12;;;;;;;18.00;4.90;;;10.40;99.90;;;;;;5091344;28;20581;-76
2022/11/07 06:40:40;;;;;;;14.85;5.68;;;10.40;99.90;;;;;;5072418;28;20495;-75
2022/11/07 06:43:11;;;;;;;12.68;4.20;;;10.40;99.90;;;;;;5072880;28;20510;-79
2022/11/07 06:45:37;;;;;;;12.10;4.13;;;10.40;99.90;;;;;;5089650;28;20055;-76
2022/11/07 06:48:03;;;;;;;14.82;3.97;;;10.40;99.90;;;;;;5082940;28;20051;-75
2022/11/07 06:50:29;;;;;;;12.80;4.10;;;10.40;99.90;;;;;;5072198;28;20491;-75
2022/11/07 06:52:54;;;;;;;19.30;4.05;;;10.40;99.90;;;;;;5071069;28;20040;-75
2022/11/07 06:55:20;;;;;;;12.98;3.72;;;10.40;99.90;;;;;;5070913;28;20049;-76
2022/11/07 06:57:47;;;;;;;9.45;3.55;;;10.40;99.90;;;;;;5083395;28;20440;-76
2022/11/07 07:00:13;;;;;;;15.32;3.70;;;10.40;99.90;;;;;;5071502;28;20487;-75
2022/11/07 07:02:39;;;;;;;15.07;3.33;;;10.40;99.90;;;;;;5072881;28;20044;-76
2022/11/07 07:05:05;;;;;;;10.82;3.85;;;10.30;99.90;;;;;;5056146;28;20487;-77
2022/11/07 07:07:31;;;;;;;12.18;3.60;;;10.40;99.90;;;;;;5090843;28;20044;-75
2022/11/07 07:09:56;;;;;;;17.27;4.80;;;10.40;99.90;;;;;;5090955;28;20047;-77
2022/11/07 07:12:25;;;;;;;11.95;4.47;;;10.40;99.90;;;;;;5072163;28;20476;-75
2022/11/07 07:14:50;;;;;;;13.50;5.15;;;10.40;99.90;;;;;;5090753;28;20051;-76
2022/11/07 07:17:16;;;;;;;17.60;5.28;;;10.40;99.90;;;;;;5084331;28;20097;-74
2022/11/07 07:19:41;;;;;;;15.25;5.68;;;10.40;99.90;;;;;;5052257;28;20057;-76
2022/11/07 07:22:12;;;;;;;25.73;6.57;;;10.40;99.90;;;;;;5052227;28;20048;-77
2022/11/07 07:24:38;;;;;;;19.02;5.90;;;10.50;99.90;;;;;;5060961;28;20052;-77
2022/11/07 07:27:04;;;;;;;18.63;6.32;;;10.50;99.90;;;;;;5069970;28;20368;-75
2022/11/07 07:29:29;;;;;;;18.90;7.50;;;10.50;99.90;;;;;;5069512;28;20053;-76
2022/11/07 07:31:55;;;;;;;19.40;7.30;;;10.50;99.90;;;;;;5068568;28;20044;-77
2022/11/07 07:34:21;;;;;;;16.05;6.43;;;11.00;99.90;;;;;;5069641;28;20044;-74
2022/11/07 07:36:46;;;;;;;21.52;7.07;;;10.50;99.90;;;;;;5069689;28;20051;-75
2022/11/07 07:39:12;;;;;;;22.45;7.53;;;11.10;99.90;;;;;;5068558;28;20048;-76
2022/11/07 07:41:37;;;;;;;18.83;7.30;;;10.70;99.90;;;;;;5069272;28;20597;-76
2022/11/07 07:44:03;;;;;;;21.48;9.05;;;10.60;99.90;;;;;;5069449;28;20093;-74
2022/11/07 07:46:29;;;;;;;21.77;7.80;;;10.60;99.90;;;;;;5067968;28;20048;-74
2022/11/07 07:48:54;;;;;;;20.13;7.68;;;10.60;99.90;;;;;;5069239;28;20340;-77
2022/11/07 07:51:20;;;;;;;17.77;7.88;;;10.60;99.90;;;;;;5069633;28;20044;-76
2022/11/07 07:53:46;;;;;;;20.00;7.57;;;10.60;99.90;;;;;;5069640;28;20067;-77
2022/11/07 07:56:13;;;;;;;20.35;7.75;;;10.60;99.90;;;;;;5069258;28;20044;-76
2022/11/07 07:58:39;;;;;;;24.90;8.05;;;10.70;99.90;;;;;;5069627;28;20404;-76
2022/11/07 08:01:10;;;;;;;18.27;7.10;;;10.60;99.90;;;;;;5068969;28;20032;-74
2022/11/07 08:03:36;;;;;;;22.58;8.38;;;10.60;99.90;;;;;;5069439;28;20049;-77
2022/11/07 08:06:04;;;;;;;17.88;8.00;;;10.60;99.90;;;;;;5069650;28;20059;-76
2022/11/07 08:08:30;;;;;;;23.08;7.88;;;10.70;99.90;;;;;;5067937;28;20060;-75
2022/11/07 08:11:04;;;;;;;22.85;8.23;;;10.70;99.90;;;;;;5069700;28;20094;-75
2022/11/07 08:13:30;;;;;;;21.03;7.57;;;10.70;99.90;;;;;;5067339;28;20044;-76
2022/11/07 08:15:56;;;;;;;23.75;7.65;;;10.70;99.90;;;;;;5069668;28;20048;-76
2022/11/07 08:18:22;;;;;;;26.67;7.63;;;10.80;99.90;;;;;;5067951;28;20040;-76
2022/11/07 08:20:50;;;;;;;23.27;7.28;;;10.80;99.90;;;;;;5069550;28;20062;-75
2022/11/07 08:23:16;;;;;;;17.83;8.02;;;10.70;99.90;;;;;;5069582;28;20044;-75
2022/11/07 08:26:03;;;;;;;25.08;7.28;;;10.80;99.90;;;;;;5067877;28;20609;-76
2022/11/07 08:28:32;;;;;;;22.13;7.30;;;10.80;99.90;;;;;;5070749;28;20062;-76
2022/11/07 08:31:01;;;;;;;19.73;6.82;;;10.80;99.90;;;;;;5085289;28;20045;-75
2022/11/07 08:33:27;;;;;;;27.83;7.57;;;10.80;99.90;;;;;;5069961;28;20045;-76
2022/11/07 08:35:55;;;;;;;23.40;7.53;;;10.90;99.90;;;;;;5069685;28;20131;-78
2022/11/07 08:38:21;;;;;;;22.30;6.75;;;10.90;99.90;;;;;;5051797;28;20059;-76
2022/11/07 08:40:49;;;;;;;25.10;7.18;;;10.90;99.90;;;;;;5086566;28;20044;-75
2022/11/07 08:43:16;;;;;;;19.92;6.97;;;10.90;99.90;;;;;;5084562;28;20040;-74
2022/11/07 08:45:43;;;;;;;20.42;7.38;;;11.00;99.90;;;;;;5051198;28;20070;-75
2022/11/07 08:48:09;;;;;;;22.00;6.63;;;11.00;99.90;;;;;;5069898;28;20049;-74
2022/11/07 08:50:34;;;;;;;21.25;6.07;;;11.00;99.90;;;;;;5051648;28;20461;-76
2022/11/07 08:53:00;;;;;;;24.05;6.93;;;11.00;99.90;;;;;;5069328;28;20049;-76
2022/11/07 08:55:26;;;;;;;25.92;7.05;;;11.10;99.90;;;;;;5051699;28;20135;-75
2022/11/07 08:57:55;;;;;;;23.52;7.28;;;11.40;99.90;;;;;;5069530;28;20036;-79
2022/11/07 09:00:21;;;;;;;23.27;6.25;;;11.10;99.90;;;;;;5051113;28;20084;-76
2022/11/07 09:02:47;;;;;;;19.90;5.82;;;11.10;99.90;;;;;;5090153;28;20072;-76
2022/11/07 09:05:12;;;;;;;22.45;6.32;;;11.20;99.90;;;;;;5085527;28;20549;-77
2022/11/07 09:07:38;;;;;;;18.58;5.72;;;11.20;99.90;;;;;;5080652;28;20056;-75
2022/11/07 09:10:04;;;;;;;14.27;5.38;;;11.20;99.90;;;;;;5054264;28;20056;-76
2022/11/07 09:12:30;;;;;;;18.52;5.60;;;11.20;99.90;;;;;;5055823;28;20661;-76
2022/11/07 09:14:55;;;;;;;19.98;5.50;;;11.30;99.90;;;;;;5072857;28;20507;-75
2022/11/07 09:17:21;;;;;;;20.63;5.63;;;11.30;99.90;;;;;;5073476;28;20051;-74
2022/11/07 09:19:46;;;;;;;17.92;5.10;;;11.30;99.90;;;;;;5073552;28;20044;-77
2022/11/07 09:22:13;;;;;;;24.48;5.82;;;11.30;99.90;;;;;;5073353;28;20044;-75
2022/11/07 09:24:38;;;;;;;17.80;5.40;;;11.70;99.90;;;;;;5038150;28;20061;-76
2022/11/07 09:27:04;;;;;;;17.63;4.50;;;11.40;99.90;;;;;;5075320;28;20578;-77
2022/11/07 09:29:29;;;;;;;18.15;4.85;;;11.40;99.90;;;;;;5074254;28;20048;-75
2022/11/07 09:31:55;;;;;;;21.38;5.47;;;11.50;99.90;;;;;;5050186;28;20126;-77
2022/11/07 09:34:21;;;;;;;24.27;5.47;;;11.50;99.90;;;;;;5072414;28;20479;-78
2022/11/07 09:36:46;;;;;;;25.27;6.00;;;11.90;99.90;;;;;;5072189;28;20111;-76
2022/11/07 09:39:12;;;;;;;18.70;4.55;;;11.80;99.90;;;;;;5054344;28;20491;-77
2022/11/07 09:41:43;;;;;;;20.65;4.95;;;11.50;99.90;;;;;;5072431;28;20033;-78
2022/11/07 09:44:23;;;;;;;17.85;4.22;;;11.60;99.90;;;;;;5054892;28;20113;-77
2022/11/07 09:47:10;;;;;;;13.90;4.22;;;11.60;99.90;;;;;;5071888;28;20071;-76
2022/11/07 09:49:44;;;;;;;16.17;4.88;;;11.60;99.90;;;;;;5053844;28;20443;-77
2022/11/07 09:52:19;;;;;;;19.08;5.50;;;11.70;99.90;;;;;;5071898;28;20048;-75
2022/11/07 09:54:54;;;;;;;19.88;6.10;;;11.70;99.90;;;;;;5054045;28;20619;-77
2022/11/07 09:57:20;;;;;;;18.75;4.22;;;11.70;99.90;;;;;;5078442;28;20032;-76
2022/11/07 10:00:00;;;;;;;18.38;4.75;;;11.70;99.90;;;;;;5092023;28;20508;-77
2022/11/07 10:02:39;;;;;;;20.65;4.90;;;11.70;99.90;;;;;;5091533;28;20044;-78
2022/11/07 10:05:05;;;;;;;16.25;4.20;;;11.70;99.90;;;;;;5073329;28;20059;-79
2022/11/07 10:07:59;;;;;;;30.77;6.28;;;11.70;99.90;;;;;;5091872;28;20040;-77
2022/11/07 10:10:48;;;;;;;15.07;3.78;;;11.70;99.90;;;;;;5084873;28;20044;-77
2022/11/07 10:13:23;;;;;;;16.30;4.53;;;11.90;99.90;;;;;;5033433;28;20491;-75
2022/11/07 10:15:53;;;;;;;;;;;11.80;99.90;;;;;;5051709;28;20053;-79
2022/11/07 10:18:51;;;;;;;18.27;4.18;;;11.80;99.90;;;;;;5051399;28;19947;-75
2022/11/07 10:21:46;;;;;;;13.77;4.25;;;11.90;99.90;;;;;;5032848;28;20128;-77
2022/11/07 10:24:35;;;;;;;20.60;4.60;;;11.90;99.90;;;;;;4953645;28;20592;-78
2022/11/07 10:27:01;;;;;;;19.52;4.50;;;12.00;99.90;;;;;;4969766;28;20309;-75
2022/11/07 10:29:34;;;;;;;18.50;4.40;;;12.10;99.90;;;;;;4954160;28;20062;-78
2022/11/07 10:32:22;;;;;;;16.58;4.63;;;12.00;99.90;;;;;;4985755;28;20045;-76
2022/11/07 10:35:12;;;;;;;20.75;4.55;;;12.00;99.90;;;;;;4986665;28;20069;-77
2022/11/07 10:37:38;;;;;;;21.38;3.97;;;12.10;99.90;;;;;;4992977;28;20440;-77
2022/11/07 10:40:34;;;;;;;16.00;3.92;;;12.10;99.90;;;;;;5008446;28;20050;-76
2022/11/07 10:43:02;;;;;;;20.88;4.30;;;12.20;99.90;;;;;;4969923;28;20177;-74
2022/11/07 10:45:28;;;;;;;14.18;4.00;;;12.40;99.90;;;;;;4967286;28;20050;-78
2022/11/07 10:47:59;;;;;;;17.35;4.13;;;12.30;99.90;;;;;;4949972;29;20059;-75
2022/11/07 10:50:25;;;;;;;16.80;3.78;;;12.30;99.90;;;;;;4950535;29;20059;-76
2022/11/07 10:53:17;;;;;;;15.60;3.85;;;12.40;99.90;;;;;;4949835;28;20164;-74
2022/11/07 10:55:45;;;;;;;15.68;3.55;;;12.40;99.90;;;;;;4931015;29;20168;-77
2022/11/07 10:58:26;;;;;;;16.33;3.40;;;12.30;99.90;;;;;;4929634;28;20109;-75
2022/11/07 11:01:01;;;;;;;20.25;4.22;;;12.40;99.90;;;;;;4960526;28;20069;-77
2022/11/07 11:03:30;;;;;;;15.13;3.55;;;12.40;99.90;;;;;;4988465;28;20086;-77
2022/11/07 11:06:10;;;;;;;15.80;3.53;;;12.50;99.90;;;;;;4988701;28;20062;-77
2022/11/07 11:08:37;;;;;;;17.58;4.05;;;12.50;99.90;;;;;;4969856;28;20133;-76
2022/11/07 11:11:26;;;;;;;18.13;4.40;;;12.50;99.90;;;;;;4988466;28;20057;-76
2022/11/07 11:14:09;;;;;;;16.65;3.83;;;12.50;99.90;;;;;;4978117;28;20137;-77
2022/11/07 11:16:38;;;;;;;20.42;4.07;;;12.60;99.90;;;;;;4971908;28;20060;-77
2022/11/07 11:19:15;;;;;;;18.52;4.35;;;12.60;99.90;;;;;;5001763;28;20063;-75
2022/11/07 11:21:43;;;;;;;18.08;4.07;;;13.00;99.90;;;;;;5038095;28;20055;-76
2022/11/07 11:24:36;;;;;;;23.48;3.72;;;12.60;99.90;;;;;;5069949;28;20077;-76
2022/11/07 11:27:22;;;;;;;20.10;3.80;;;12.60;99.90;;;;;;4990165;28;20132;-74
2022/11/07 11:29:57;;;;;;;21.95;4.13;;;12.70;99.90;;;;;;4990641;28;20058;-77
2022/11/07 11:32:50;;;;;;;20.02;4.18;;;12.60;99.90;;;;;;5005167;28;20062;-77
2022/11/07 11:35:39;;;;;;;15.63;3.83;;;12.60;99.90;;;;;;4990511;28;20061;-75
2022/11/07 11:38:21;;;;;;;18.10;4.18;;;12.70;99.90;;;;;;5007240;28;20417;-77
2022/11/07 11:40:53;;;;;;;14.93;3.80;;;12.70;99.90;;;;;;5007109;28;20053;-75
2022/11/07 11:43:29;;;;;;;13.63;4.22;;;12.90;99.90;;;;;;4993604;28;20053;-75
2022/11/07 11:46:19;;;;;;;14.48;4.00;;;12.90;99.90;;;;;;4987609;28;20100;-76
2022/11/07 11:48:50;;;;;;;20.67;4.72;;;12.80;99.90;;;;;;4987169;28;20050;-74
2022/11/07 11:51:31;;;;;;;18.10;3.75;;;12.90;99.90;;;;;;4987405;28;20073;-75
2022/11/07 11:53:56;;;;;;;13.75;4.38;;;13.00;99.90;;;;;;4991137;28;20056;-75
2022/11/07 11:56:50;;;;;;;23.13;4.32;;;13.40;99.90;;;;;;4993661;28;20046;-75
2022/11/07 11:59:21;;;;;;;21.40;4.20;;;13.10;99.90;;;;;;4970925;28;20595;-77
2022/11/07 12:02:09;;;;;;;13.57;4.10;;;13.20;99.90;;;;;;4992348;28;20053;-76
2022/11/07 12:04:49;;;;;;;19.58;4.10;;;13.20;99.90;;;;;;5024224;28;20052;-74
2022/11/07 12:07:33;;;;;;;14.65;3.65;;;13.20;99.90;;;;;;5058417;28;20190;-74
2022/11/07 12:10:22;;;;;;;21.10;4.15;;;13.20;99.90;;;;;;5030865;28;20052;-74
2022/11/07 12:13:20;;;;;;;12.55;3.80;;;13.20;99.90;;;;;;5067657;28;20083;-76
2022/11/07 12:16:07;;;;;;;18.45;4.57;;;13.20;99.90;;;;;;5049208;28;20373;-77
2022/11/07 12:19:06;;;;;;;13.95;3.58;;;13.30;99.90;;;;;;5062056;28;20215;-76
2022/11/07 12:21:49;;;;;;;21.38;4.43;;;13.30;99.90;;;;;;5048875;28;20049;-75
2022/11/07 12:24:22;;;;;;;11.25;3.50;;;13.40;99.90;;;;;;5049129;28;20052;-78
2022/11/07 12:26:47;;;;;;;11.02;3.38;;;13.40;99.90;;;;;;5030969;28;20087;-77
2022/11/07 12:29:22;;;;;;;14.82;3.75;;;13.50;99.90;;;;;;5050071;28;20088;-77
2022/11/07 12:32:07;;;;;;;16.38;3.10;;;13.60;99.90;;;;;;5059327;28;20048;-77
2022/11/07 12:34:47;;;;;;;16.08;3.35;;;13.70;99.90;;;;;;5067111;28;20127;-77
2022/11/07 12:37:44;;;;;;;11.73;3.05;;;13.80;99.90;;;;;;5068691;28;20063;-76
2022/11/07 12:40:42;;;;;;;16.10;3.40;;;13.80;99.90;;;;;;5056826;28;20044;-76
2022/11/07 12:43:44;;;;;;;15.90;3.30;;;13.90;99.90;;;;;;4992017;28;20401;-77
2022/11/07 12:46:18;;;;;;;11.38;3.30;;;14.00;99.90;;;;;;5011039;28;20077;-75
2022/11/07 12:48:57;;;;;;;13.35;2.85;;;14.10;99.90;;;;;;5010023;28;20745;-78
2022/11/07 12:51:57;;;;;;;10.77;2.60;;;13.90;99.90;;;;;;4994034;28;20516;-77
2022/11/07 12:54:46;;;;;;;12.68;2.67;;;14.00;99.90;;;;;;4975004;28;20066;-78
2022/11/07 12:57:27;;;;;;;15.95;3.47;;;14.00;99.90;;;;;;4990706;28;20125;-76
2022/11/07 13:00:18;;;;;;;13.52;2.92;;;14.00;99.90;;;;;;4990845;28;20468;-78
2022/11/07 13:03:17;;;;;;;11.63;2.58;;;13.90;99.90;;;;;;4991105;28;20127;-76
2022/11/07 13:06:03;;;;;;;11.75;2.40;;;13.80;99.90;;;;;;4973351;28;20062;-77
2022/11/07 13:08:50;;;;;;;11.95;2.85;;;13.80;99.90;;;;;;4990910;28;20049;-77